Time;durP1;ratioP1;P1;durP2;ratioP2;P2;SDS_P1;SDS_P2;PMS_P1;PMS_P2;Temp;Humidity;BMP_temperature;BMP_pressure;BME280_temperature;BME280_humidity;BME280_pressure;Samples;Min_cycle;Max_cycle;Signal;HPM_P1;HPM_P2
2020/12/13 00:00:32;;;;;;;73.05;35.22;;;4.10;99.90;;;;;;5086295;28;20546;-89
2020/12/13 00:02:57;;;;;;;72.97;35.33;;;4.10;99.90;;;;;;5086159;28;20249;-89
2020/12/13 00:05:27;;;;;;;71.30;32.40;;;4.20;99.90;;;;;;5085849;28;20184;-88
2020/12/13 00:07:53;;;;;;;71.70;33.47;;;4.20;99.90;;;;;;5085110;28;20245;-89
2020/12/13 00:10:25;;;;;;;73.25;33.42;;;4.10;99.90;;;;;;5086023;28;20176;-89
2020/12/13 00:12:51;;;;;;;55.70;27.88;;;4.10;99.90;;;;;;5087459;28;20253;-89
2020/12/13 00:15:17;;;;;;;54.80;24.50;;;4.10;99.90;;;;;;5086127;28;20201;-89
2020/12/13 00:17:43;;;;;;;55.10;25.63;;;4.10;99.90;;;;;;5085129;28;20542;-88
2020/12/13 00:20:09;;;;;;;55.17;26.05;;;4.10;99.90;;;;;;5087406;28;20522;-89
2020/12/13 00:22:35;;;;;;;46.97;23.57;;;4.10;99.90;;;;;;5085733;28;20180;-88
2020/12/13 00:25:01;;;;;;;48.00;24.47;;;4.10;99.90;;;;;;5086030;28;20744;-89
2020/12/13 00:27:30;;;;;;;43.27;23.63;;;4.10;99.90;;;;;;5087035;28;20232;-89
2020/12/13 00:30:01;;;;;;;39.00;21.70;;;4.10;99.90;;;;;;5082761;28;21233;-89
2020/12/13 00:32:30;;;;;;;42.50;23.20;;;4.00;99.90;;;;;;5084834;28;20161;-89
2020/12/13 00:34:57;;;;;;;43.25;21.02;;;4.00;99.90;;;;;;5085604;28;20617;-89
2020/12/13 00:37:27;;;;;;;34.85;20.08;;;4.00;99.90;;;;;;5086309;28;20819;-89
2020/12/13 00:39:56;;;;;;;35.67;19.88;;;4.00;99.90;;;;;;5086391;28;20719;-88
2020/12/13 00:42:28;;;;;;;44.30;22.88;;;4.00;99.90;;;;;;5084741;28;20210;-89
2020/12/13 00:44:59;;;;;;;41.13;20.90;;;4.00;99.90;;;;;;5091151;28;20275;-89
2020/12/13 00:47:25;;;;;;;47.92;22.80;;;3.90;99.90;;;;;;5106620;28;20176;-88
2020/12/13 00:49:53;;;;;;;39.70;21.60;;;3.90;99.90;;;;;;5106546;28;20191;-88
2020/12/13 00:52:19;;;;;;;41.85;23.75;;;3.90;99.90;;;;;;5107328;28;20183;-87
2020/12/13 00:54:47;;;;;;;43.37;23.73;;;3.90;99.90;;;;;;5105249;28;20213;-89
2020/12/13 00:57:13;;;;;;;44.15;22.58;;;3.90;99.90;;;;;;5105183;28;20184;-89
2020/12/13 00:59:38;;;;;;;39.03;21.27;;;4.00;99.90;;;;;;5107091;28;20645;-89
2020/12/13 01:02:06;;;;;;;44.27;24.83;;;4.00;99.90;;;;;;5107210;28;20203;-89
2020/12/13 01:04:33;;;;;;;45.03;20.02;;;4.00;99.90;;;;;;5105734;28;20251;-89
2020/12/13 01:07:03;;;;;;;42.63;22.25;;;4.00;99.90;;;;;;5105996;28;20191;-89
2020/12/13 01:09:29;;;;;;;40.90;22.77;;;4.00;99.90;;;;;;5105663;28;20636;-89
2020/12/13 01:11:58;;;;;;;43.60;22.80;;;4.00;99.90;;;;;;5105943;28;20179;-89
2020/12/13 01:14:24;;;;;;;46.55;22.42;;;3.90;99.90;;;;;;5104080;28;20199;-89
2020/12/13 01:16:54;;;;;;;51.25;25.30;;;3.90;99.90;;;;;;5105936;28;20187;-89
2020/12/13 01:19:25;;;;;;;47.53;23.00;;;4.00;99.90;;;;;;5105896;28;20183;-89
2020/12/13 01:21:51;;;;;;;46.42;23.95;;;4.00;99.90;;;;;;5106247;28;20180;-89
2020/12/13 01:24:20;;;;;;;49.70;26.07;;;4.00;99.90;;;;;;5107039;28;20183;-88
2020/12/13 01:26:57;;;;;;;44.97;22.63;;;4.00;99.90;;;;;;5107256;28;20187;-89
2020/12/13 01:29:32;;;;;;;54.78;25.63;;;4.00;99.90;;;;;;5107145;28;20215;-89
2020/12/13 01:32:01;;;;;;;45.83;24.23;;;4.00;99.90;;;;;;5111153;28;20546;-89
2020/12/13 01:34:27;;;;;;;57.90;28.65;;;3.90;99.90;;;;;;5109260;28;20176;-89
2020/12/13 01:36:53;;;;;;;51.27;26.87;;;3.80;99.90;;;;;;5109599;28;20187;-89
2020/12/13 01:39:21;;;;;;;69.10;27.80;;;3.80;99.90;;;;;;5109435;28;20183;-89
2020/12/13 01:41:46;;;;;;;58.65;28.25;;;3.90;99.90;;;;;;5109550;28;20218;-89
2020/12/13 01:44:12;;;;;;;69.27;29.20;;;3.90;99.90;;;;;;5109007;28;20786;-89
2020/12/13 01:46:38;;;;;;;56.40;27.90;;;3.90;99.90;;;;;;5107829;28;20179;-88
2020/12/13 01:49:10;;;;;;;55.27;27.77;;;4.00;99.90;;;;;;5110132;28;20628;-89
2020/12/13 01:51:50;;;;;;;68.30;29.77;;;4.00;99.90;;;;;;5093672;28;20927;-89
2020/12/13 01:54:19;;;;;;;64.85;30.77;;;3.90;99.90;;;;;;5088177;28;20252;-89
2020/12/13 01:56:59;;;;;;;57.67;27.10;;;3.90;99.90;;;;;;5088154;28;20644;-89
2020/12/13 01:59:26;;;;;;;62.00;28.83;;;3.80;99.90;;;;;;5088434;28;20176;-89
2020/12/13 02:02:02;;;;;;;59.90;30.38;;;3.80;99.90;;;;;;5089296;28;20704;-88
2020/12/13 02:04:33;;;;;;;56.63;28.30;;;3.90;99.90;;;;;;5088305;28;20180;-89
2020/12/13 02:07:03;;;;;;;63.00;28.75;;;3.80;99.90;;;;;;5088537;28;20188;-89
2020/12/13 02:09:28;;;;;;;61.28;28.33;;;3.90;99.90;;;;;;5088728;28;20184;-89
2020/12/13 02:11:54;;;;;;;59.57;27.60;;;3.90;99.90;;;;;;5088401;28;20191;-89
2020/12/13 02:14:20;;;;;;;62.63;30.20;;;3.90;99.90;;;;;;5089596;28;20286;-89
2020/12/13 02:16:50;;;;;;;54.53;29.25;;;3.90;99.90;;;;;;5088367;28;20195;-89
2020/12/13 02:19:22;;;;;;;53.28;26.63;;;3.90;99.90;;;;;;5087539;28;20727;-89
2020/12/13 02:21:50;;;;;;;59.22;26.40;;;3.90;99.90;;;;;;5088209;28;20169;-89
2020/12/13 02:24:19;;;;;;;57.05;25.65;;;3.70;99.90;;;;;;5088026;28;20186;-89
2020/12/13 02:26:52;;;;;;;62.33;28.52;;;3.60;99.90;;;;;;5088240;28;20253;-89
2020/12/13 02:29:20;;;;;;;57.00;24.95;;;3.70;99.90;;;;;;5088229;28;20194;-89
2020/12/13 02:31:52;;;;;;;61.90;26.63;;;3.70;99.90;;;;;;5089305;28;20250;-89
2020/12/13 02:34:19;;;;;;;59.08;26.27;;;3.70;99.90;;;;;;5087849;28;20197;-89
2020/12/13 02:36:45;;;;;;;61.90;26.50;;;3.70;99.90;;;;;;5087504;28;20185;-89
2020/12/13 02:39:14;;;;;;;59.50;26.50;;;3.80;99.90;;;;;;5089737;28;20184;-89
2020/12/13 02:41:40;;;;;;;57.45;26.17;;;3.80;99.90;;;;;;5088618;28;20700;-89
2020/12/13 02:44:05;;;;;;;55.43;24.93;;;3.90;99.90;;;;;;5087600;28;20233;-89
2020/12/13 02:46:37;;;;;;;52.03;22.80;;;3.90;99.90;;;;;;5106808;28;20260;-89
2020/12/13 02:49:15;;;;;;;52.95;25.13;;;3.90;99.90;;;;;;5108153;28;20176;-89
2020/12/13 02:51:40;;;;;;;56.13;25.40;;;3.80;99.90;;;;;;5092723;28;20654;-89
2020/12/13 02:54:06;;;;;;;52.67;23.70;;;3.70;99.90;;;;;;5087362;28;20187;-89
2020/12/13 02:56:35;;;;;;;59.83;27.50;;;3.70;99.90;;;;;;5086898;28;20208;-89
2020/12/13 02:59:03;;;;;;;67.57;27.33;;;3.70;99.90;;;;;;5087602;28;20690;-89
2020/12/13 03:01:35;;;;;;;58.33;27.05;;;3.80;99.90;;;;;;5087417;28;20538;-89
2020/12/13 03:04:09;;;;;;;65.20;28.02;;;3.80;99.90;;;;;;5089587;28;20574;-89
2020/12/13 03:06:35;;;;;;;58.40;27.45;;;3.80;99.90;;;;;;5086405;28;20172;-89
2020/12/13 03:09:00;;;;;;;60.33;26.70;;;3.70;99.90;;;;;;5086376;28;20184;-89
2020/12/13 03:11:29;;;;;;;62.33;26.10;;;3.60;99.90;;;;;;5089846;28;20649;-89
2020/12/13 03:14:00;;;;;;;54.92;25.02;;;3.70;99.90;;;;;;5088918;28;20220;-89
2020/12/13 03:16:32;;;;;;;51.90;25.23;;;3.60;99.90;;;;;;5087866;28;20581;-90
2020/12/13 03:19:04;;;;;;;62.10;24.35;;;3.60;99.90;;;;;;5087303;28;20176;-89
2020/12/13 03:21:32;;;;;;;63.22;25.25;;;3.50;99.90;;;;;;5087481;28;20529;-89
2020/12/13 03:23:58;;;;;;;60.70;26.50;;;3.50;99.90;;;;;;5086530;28;20550;-89
2020/12/13 03:26:29;;;;;;;59.20;26.07;;;3.60;99.90;;;;;;5086752;28;20184;-89
2020/12/13 03:28:54;;;;;;;60.30;25.48;;;3.50;99.90;;;;;;5088829;28;20161;-89
2020/12/13 03:31:20;;;;;;;55.40;24.67;;;3.50;99.90;;;;;;5087668;28;20191;-89
2020/12/13 03:33:48;;;;;;;53.03;23.10;;;3.50;99.90;;;;;;5086759;28;20184;-89
2020/12/13 03:36:14;;;;;;;61.05;26.13;;;3.50;99.90;;;;;;5086930;28;20265;-90
2020/12/13 03:38:40;;;;;;;58.07;26.40;;;3.50;99.90;;;;;;5088253;28;20243;-89
2020/12/13 03:41:06;;;;;;;56.93;24.70;;;3.50;99.90;;;;;;5086082;28;20173;-89
2020/12/13 03:43:37;;;;;;;54.27;24.53;;;3.50;99.90;;;;;;5087028;28;20191;-89
2020/12/13 03:46:02;;;;;;;54.95;26.27;;;3.50;99.90;;;;;;5103598;28;20765;-89
2020/12/13 03:48:28;;;;;;;56.00;24.90;;;3.50;99.90;;;;;;5107435;28;20213;-89
2020/12/13 03:51:01;;;;;;;51.37;23.03;;;3.50;99.90;;;;;;5108576;28;20581;-89
2020/12/13 03:53:27;;;;;;;51.08;23.58;;;3.60;99.90;;;;;;5108236;28;20584;-89
2020/12/13 03:55:58;;;;;;;50.53;22.97;;;3.60;99.90;;;;;;5107544;28;20203;-89
2020/12/13 03:58:24;;;;;;;45.30;22.85;;;3.60;99.90;;;;;;5105971;28;20184;-89
2020/12/13 04:00:49;;;;;;;49.50;22.70;;;3.60;99.90;;;;;;5106791;28;20176;-89
2020/12/13 04:03:27;;;;;;;48.90;25.13;;;3.60;99.90;;;;;;5107808;28;20206;-89
2020/12/13 04:05:52;;;;;;;44.53;22.25;;;3.70;99.90;;;;;;5107050;28;20179;-89
2020/12/13 04:08:24;;;;;;;42.80;21.23;;;3.70;99.90;;;;;;5106971;28;20214;-89
2020/12/13 04:10:52;;;;;;;45.05;22.60;;;3.50;99.90;;;;;;5106555;28;20187;-89
2020/12/13 04:13:21;;;;;;;50.83;24.00;;;3.50;99.90;;;;;;5105535;28;20227;-89
2020/12/13 04:15:49;;;;;;;48.72;22.27;;;3.50;99.90;;;;;;5107020;28;20294;-89
2020/12/13 04:18:15;;;;;;;45.03;21.17;;;3.70;99.90;;;;;;5106791;28;20537;-89
2020/12/13 04:20:43;;;;;;;48.83;24.07;;;3.70;99.90;;;;;;5106475;28;20191;-89
2020/12/13 04:23:15;;;;;;;52.25;22.15;;;3.60;99.90;;;;;;5106646;28;20178;-89
2020/12/13 04:25:43;;;;;;;46.72;23.02;;;3.60;99.90;;;;;;5106744;28;20183;-89
2020/12/13 04:28:18;;;;;;;45.30;21.88;;;3.60;99.90;;;;;;5107065;28;20184;-89
2020/12/13 04:30:43;;;;;;;50.03;22.20;;;3.60;99.90;;;;;;5105510;28;20215;-90
2020/12/13 04:33:12;;;;;;;45.13;21.67;;;3.60;99.90;;;;;;5107044;28;20238;-88
2020/12/13 04:35:43;;;;;;;42.10;22.02;;;3.60;99.90;;;;;;5106186;28;20246;-89
2020/12/13 04:38:12;;;;;;;50.53;24.00;;;3.70;99.90;;;;;;5106711;28;20175;-89
2020/12/13 04:40:37;;;;;;;50.28;23.75;;;3.60;99.90;;;;;;5105921;28;20175;-89
2020/12/13 04:43:12;;;;;;;50.93;24.33;;;3.60;99.90;;;;;;5106879;28;20182;-89
2020/12/13 04:45:40;;;;;;;54.83;23.85;;;3.60;99.90;;;;;;5105942;28;20269;-89
2020/12/13 04:48:09;;;;;;;56.90;24.58;;;3.60;99.90;;;;;;5106109;28;20653;-89
2020/12/13 04:50:39;;;;;;;57.03;25.20;;;3.70;99.90;;;;;;5100143;28;20251;-88
2020/12/13 04:53:09;;;;;;;50.13;25.55;;;3.70;99.90;;;;;;5086263;28;20229;-89
2020/12/13 04:55:58;;;;;;;48.70;23.23;;;3.70;99.90;;;;;;5085991;28;20196;-88
2020/12/13 04:58:28;;;;;;;45.80;21.52;;;3.70;99.90;;;;;;5085555;28;20180;-89
2020/12/13 05:01:02;;;;;;;48.88;23.13;;;3.60;99.90;;;;;;5085425;28;20664;-89
2020/12/13 05:03:31;;;;;;;47.97;23.20;;;3.70;99.90;;;;;;5087646;28;20177;-89
2020/12/13 05:06:03;;;;;;;56.40;24.85;;;3.70;99.90;;;;;;5090327;28;20199;-89
2020/12/13 05:08:30;;;;;;;51.13;23.63;;;3.80;99.90;;;;;;5090149;28;20172;-89
2020/12/13 05:11:05;;;;;;;41.55;21.58;;;3.90;99.90;;;;;;5090620;28;20227;-89
2020/12/13 05:13:30;;;;;;;45.67;23.30;;;3.80;99.90;;;;;;5091173;28;20231;-89
2020/12/13 05:15:59;;;;;;;46.20;22.07;;;3.80;99.90;;;;;;5089749;28;20207;-89
2020/12/13 05:18:24;;;;;;;41.83;23.38;;;3.70;99.90;;;;;;5089072;28;20595;-89
2020/12/13 05:20:53;;;;;;;42.60;23.47;;;3.60;99.90;;;;;;5090343;28;20177;-89
2020/12/13 05:23:21;;;;;;;47.10;24.50;;;3.70;99.90;;;;;;5089828;28;20225;-89
2020/12/13 05:25:54;;;;;;;48.25;26.00;;;3.90;99.90;;;;;;5089532;28;20180;-89
2020/12/13 05:28:31;;;;;;;41.22;25.45;;;3.90;99.90;;;;;;5089209;28;20208;-89
2020/12/13 05:31:00;;;;;;;46.05;25.85;;;3.80;99.90;;;;;;5091119;28;20176;-89
2020/12/13 05:33:37;;;;;;;38.33;21.92;;;3.80;99.90;;;;;;5089684;28;20180;-88
2020/12/13 05:36:05;;;;;;;43.25;24.50;;;3.70;99.90;;;;;;5087689;28;20214;-88
2020/12/13 05:38:39;;;;;;;56.60;32.35;;;3.70;99.90;;;;;;5089576;28;20177;-88
2020/12/13 05:41:16;;;;;;;45.80;27.63;;;3.70;99.90;;;;;;5089838;28;20291;-88
2020/12/13 05:51:39;;;;;;;42.10;22.83;;;3.60;99.90;;;;;;5095525;28;20184;-88
2020/12/13 05:54:22;;;;;;;42.15;23.33;;;3.60;99.90;;;;;;5089376;28;20172;-89
2020/12/13 05:56:56;;;;;;;42.78;23.83;;;3.70;99.90;;;;;;5088836;28;20223;-89
2020/12/13 05:59:26;;;;;;;39.80;23.30;;;3.60;99.90;;;;;;5090159;28;20173;-89
2020/12/13 06:01:53;;;;;;;36.90;23.45;;;3.60;99.90;;;;;;5088870;28;20644;-89
2020/12/13 06:04:25;;;;;;;45.50;22.90;;;3.50;99.90;;;;;;5089177;28;20180;-89
2020/12/13 06:06:55;;;;;;;44.63;22.02;;;3.60;99.90;;;;;;5088372;28;20710;-88
2020/12/13 06:09:54;;;;;;;40.78;22.30;;;3.50;99.90;;;;;;5089944;28;20173;-89
2020/12/13 06:12:25;;;;;;;42.08;24.70;;;3.50;99.90;;;;;;5089535;28;20285;-89
2020/12/13 06:15:00;;;;;;;41.65;22.20;;;3.50;99.90;;;;;;5088067;28;20637;-89
2020/12/13 06:17:27;;;;;;;42.05;24.55;;;3.50;99.90;;;;;;5089957;28;20160;-89
2020/12/13 06:19:56;;;;;;;43.53;22.80;;;3.50;99.90;;;;;;5089908;28;20197;-88
2020/12/13 06:22:24;;;;;;;43.75;24.83;;;3.50;99.90;;;;;;5089500;28;20621;-88
2020/12/13 06:24:53;;;;;;;47.28;25.48;;;3.50;99.90;;;;;;5087190;28;20184;-90
2020/12/13 06:27:23;;;;;;;53.03;26.17;;;3.60;99.90;;;;;;5088710;28;20188;-89
2020/12/13 06:29:49;;;;;;;52.58;25.52;;;3.50;99.90;;;;;;5088838;28;20180;-89
2020/12/13 06:32:18;;;;;;;52.88;27.67;;;3.50;99.90;;;;;;5087961;28;20184;-89
2020/12/13 06:34:45;;;;;;;44.35;23.80;;;3.50;99.90;;;;;;5089525;28;20299;-88
2020/12/13 06:37:12;;;;;;;50.80;27.70;;;3.50;99.90;;;;;;5087660;28;20223;-89
2020/12/13 06:39:42;;;;;;;44.25;24.67;;;3.50;99.90;;;;;;5088115;28;20176;-88
2020/12/13 06:42:13;;;;;;;51.22;27.08;;;3.50;99.90;;;;;;5088105;28;20600;-89
2020/12/13 06:44:41;;;;;;;47.35;24.45;;;3.50;99.90;;;;;;5091477;28;20541;-89
2020/12/13 06:47:24;;;;;;;48.20;24.90;;;3.50;99.90;;;;;;5109030;28;20270;-89
2020/12/13 06:49:49;;;;;;;53.65;28.90;;;3.60;99.90;;;;;;5107978;28;20190;-89
2020/12/13 06:52:25;;;;;;;47.53;24.13;;;3.60;99.90;;;;;;5087952;28;20177;-88
2020/12/13 06:54:51;;;;;;;55.47;27.33;;;3.60;99.90;;;;;;5089068;28;20200;-89
2020/12/13 06:57:28;;;;;;;49.63;27.20;;;3.70;99.90;;;;;;5088134;28;20174;-89
2020/12/13 06:59:57;;;;;;;50.25;26.40;;;3.70;99.90;;;;;;5087299;28;21022;-89
2020/12/13 07:02:58;;;;;;;53.30;26.63;;;3.70;99.90;;;;;;5087464;28;20771;-89
2020/12/13 07:05:46;;;;;;;57.33;26.73;;;3.70;99.90;;;;;;5088113;28;20659;-89
2020/12/13 07:08:19;;;;;;;61.47;29.45;;;3.70;99.90;;;;;;5087528;28;20181;-89
2020/12/13 07:10:47;;;;;;;63.17;28.90;;;3.70;99.90;;;;;;5087576;28;20271;-89
2020/12/13 07:13:19;;;;;;;63.63;31.00;;;3.70;99.90;;;;;;5086149;28;20700;-89
2020/12/13 07:15:56;;;;;;;52.60;27.80;;;3.80;99.90;;;;;;5087762;28;20215;-89
2020/12/13 07:18:25;;;;;;;119.28;58.85;;;3.80;99.90;;;;;;5087543;28;20233;-89
2020/12/13 07:20:53;;;;;;;102.38;51.90;;;3.80;99.90;;;;;;5086899;28;20211;-89
2020/12/13 07:23:21;;;;;;;88.32;43.28;;;3.80;99.90;;;;;;5087232;28;20180;-89
2020/12/13 07:25:52;;;;;;;140.60;68.95;;;3.90;99.90;;;;;;5086885;28;20181;-89
2020/12/13 07:28:22;;;;;;;84.80;40.45;;;3.90;99.90;;;;;;5086446;28;20192;-89
2020/12/13 07:30:51;;;;;;;63.88;35.72;;;3.90;99.90;;;;;;5086818;28;20666;-89
2020/12/13 07:33:19;;;;;;;54.72;31.02;;;3.80;99.90;;;;;;5087066;28;20180;-89
2020/12/13 07:35:45;;;;;;;64.38;30.33;;;3.90;99.90;;;;;;5086872;28;20200;-89
2020/12/13 07:38:23;;;;;;;63.87;31.80;;;3.90;99.90;;;;;;5087972;28;20238;-88
2020/12/13 07:40:49;;;;;;;62.20;34.85;;;3.90;99.90;;;;;;5087115;28;20652;-89
2020/12/13 07:43:14;;;;;;;61.73;30.10;;;3.90;99.90;;;;;;5087006;28;20184;-89
2020/12/13 07:45:46;;;;;;;62.57;29.70;;;4.00;99.90;;;;;;5097783;28;20651;-88
2020/12/13 07:48:18;;;;;;;57.72;31.15;;;3.90;99.90;;;;;;5107074;28;20188;-88
2020/12/13 07:50:46;;;;;;;56.75;29.58;;;4.00;99.90;;;;;;5107400;28;20180;-89
2020/12/13 07:53:25;;;;;;;64.22;30.15;;;4.00;99.90;;;;;;5107268;28;20188;-89
2020/12/13 07:55:53;;;;;;;58.05;28.65;;;4.00;99.90;;;;;;5107053;28;20207;-89
2020/12/13 07:58:19;;;;;;;63.33;34.00;;;4.00;99.90;;;;;;5106948;28;20179;-88
2020/12/13 08:00:48;;;;;;;64.80;36.57;;;4.00;99.90;;;;;;5106951;28;20527;-88
2020/12/13 08:03:16;;;;;;;88.35;44.63;;;4.00;99.90;;;;;;5107220;28;20397;-89
2020/12/13 08:05:44;;;;;;;55.15;30.38;;;4.10;99.90;;;;;;5107037;28;20608;-89
2020/12/13 08:08:13;;;;;;;57.88;29.80;;;4.10;99.90;;;;;;5107207;28;20182;-89
2020/12/13 08:10:44;;;;;;;54.40;30.63;;;4.10;99.90;;;;;;5108040;28;20179;-89
2020/12/13 08:13:10;;;;;;;88.57;44.60;;;4.10;99.90;;;;;;5106559;28;20231;-88
2020/12/13 08:15:35;;;;;;;68.90;34.00;;;4.10;99.90;;;;;;5107337;28;20841;-89
2020/12/13 08:18:16;;;;;;;65.00;33.77;;;4.20;99.90;;;;;;5105956;28;20244;-89
2020/12/13 08:20:49;;;;;;;61.67;31.75;;;4.20;99.90;;;;;;5106747;28;20684;-89
2020/12/13 08:23:22;;;;;;;67.03;36.00;;;4.20;99.90;;;;;;5106908;28;20282;-88
2020/12/13 08:25:48;;;;;;;55.38;29.95;;;4.20;99.90;;;;;;5106489;28;20681;-89
2020/12/13 08:28:15;;;;;;;55.08;27.75;;;4.30;99.90;;;;;;5106768;28;20286;-88
2020/12/13 08:30:41;;;;;;;44.20;25.23;;;4.30;99.90;;;;;;5106310;28;20307;-89
2020/12/13 08:33:11;;;;;;;47.33;26.50;;;4.30;99.90;;;;;;5106517;28;20713;-88
2020/12/13 08:35:36;;;;;;;45.05;22.55;;;4.40;99.90;;;;;;5105669;28;20211;-87
2020/12/13 08:38:03;;;;;;;55.90;28.57;;;4.40;99.90;;;;;;5105707;28;20543;-88
2020/12/13 08:40:40;;;;;;;52.28;27.77;;;4.40;99.90;;;;;;5106622;28;20627;-88
2020/12/13 08:43:10;;;;;;;41.00;23.70;;;4.40;99.90;;;;;;5107894;28;20172;-89
2020/12/13 08:45:45;;;;;;;46.22;24.98;;;4.40;99.90;;;;;;5107514;28;20274;-89
2020/12/13 08:48:13;;;;;;;44.25;22.05;;;4.50;99.90;;;;;;5106536;28;20204;-88
2020/12/13 08:50:42;;;;;;;44.75;24.15;;;4.50;99.90;;;;;;5097285;28;20184;-88
2020/12/13 08:53:25;;;;;;;48.65;25.63;;;4.50;99.90;;;;;;5086122;28;20275;-89
2020/12/13 08:56:11;;;;;;;47.75;27.60;;;4.50;99.90;;;;;;5086177;28;20276;-88
2020/12/13 08:59:07;;;;;;;42.88;25.25;;;4.60;99.90;;;;;;5085378;28;20173;-88
2020/12/13 09:01:39;;;;;;;40.97;23.08;;;4.60;99.90;;;;;;5085283;28;20726;-88
2020/12/13 09:04:25;;;;;;;39.80;24.10;;;4.70;99.90;;;;;;5086127;28;20238;-88
2020/12/13 09:06:53;;;;;;;35.25;21.75;;;4.70;99.90;;;;;;5084607;28;20191;-88
2020/12/13 09:09:30;;;;;;;39.17;22.00;;;4.70;99.90;;;;;;5086749;28;20179;-88
2020/12/13 09:11:56;;;;;;;40.85;22.45;;;4.70;99.90;;;;;;5086316;28;20188;-89
2020/12/13 09:14:32;;;;;;;42.30;22.73;;;4.80;99.90;;;;;;5085373;28;20232;-88
2020/12/13 09:17:00;;;;;;;35.15;20.73;;;4.90;99.90;;;;;;5085602;28;20199;-89
2020/12/13 09:19:31;;;;;;;39.42;23.08;;;4.80;99.90;;;;;;5085570;28;20177;-89
2020/12/13 09:22:01;;;;;;;45.60;23.70;;;4.80;99.90;;;;;;5085593;28;20180;-89
2020/12/13 09:24:32;;;;;;;43.72;23.92;;;4.90;99.90;;;;;;5084494;28;20173;-89
2020/12/13 09:27:02;;;;;;;45.13;22.58;;;5.00;99.90;;;;;;5086986;28;20169;-89
2020/12/13 09:29:28;;;;;;;45.05;25.20;;;5.10;99.90;;;;;;5085997;28;20263;-89
2020/12/13 09:31:54;;;;;;;48.90;27.95;;;5.20;99.90;;;;;;5085767;28;20195;-88
2020/12/13 09:34:21;;;;;;;81.80;43.37;;;5.20;99.90;;;;;;5086163;28;20676;-88
2020/12/13 09:36:47;;;;;;;68.03;40.22;;;5.20;99.90;;;;;;5086979;28;20220;-88
2020/12/13 09:39:13;;;;;;;80.90;41.97;;;5.10;99.90;;;;;;5085563;28;20618;-88
2020/12/13 09:41:38;;;;;;;57.80;30.70;;;5.20;99.90;;;;;;5084632;28;20180;-89
2020/12/13 09:44:04;;;;;;;60.40;35.77;;;5.20;99.90;;;;;;5085438;28;20184;-88
2020/12/13 09:46:32;;;;;;;45.53;25.90;;;5.20;99.90;;;;;;5103843;28;20183;-89
2020/12/13 09:48:58;;;;;;;51.50;32.30;;;5.30;99.90;;;;;;5105592;28;20609;-88
2020/12/13 09:51:26;;;;;;;43.47;24.77;;;5.40;99.50;;;;;;5094387;28;20199;-88
2020/12/13 09:53:52;;;;;;;38.22;23.05;;;5.40;98.50;;;;;;5088975;28;20180;-89
2020/12/13 09:56:21;;;;;;;43.77;25.67;;;5.40;98.50;;;;;;5087847;28;20231;-88
2020/12/13 09:58:50;;;;;;;49.45;26.05;;;5.50;99.10;;;;;;5088557;28;20179;-88
2020/12/13 10:01:16;;;;;;;55.72;29.58;;;5.40;99.30;;;;;;5089417;28;20185;-88
2020/12/13 10:03:51;;;;;;;41.85;22.58;;;5.50;99.70;;;;;;5088619;28;20180;-88
2020/12/13 10:09:11;;;;;;;35.08;20.15;;;5.50;97.90;;;;;;5089872;28;20184;-88
2020/12/13 10:11:39;;;;;;;30.08;18.85;;;5.50;97.60;;;;;;5088997;28;20208;-88
2020/12/13 10:14:13;;;;;;;31.33;19.10;;;5.60;97.20;;;;;;5087581;28;20240;-88
2020/12/13 10:16:40;;;;;;;32.40;19.63;;;5.60;96.50;;;;;;5087954;28;20216;-88
2020/12/13 10:19:18;;;;;;;30.77;17.67;;;5.60;97.20;;;;;;5089109;28;20651;-89
2020/12/13 10:21:46;;;;;;;28.42;18.90;;;5.60;97.10;;;;;;5088789;28;20180;-89
2020/12/13 10:24:15;;;;;;;29.50;19.27;;;5.60;97.10;;;;;;5089655;28;20176;-88
2020/12/13 10:26:41;;;;;;;29.48;19.67;;;5.60;96.90;;;;;;5089645;28;20204;-87
2020/12/13 10:29:07;;;;;;;30.15;20.23;;;5.60;97.00;;;;;;5087221;28;20184;-89
2020/12/13 10:31:41;;;;;;;39.65;25.52;;;5.60;97.20;;;;;;5088439;28;20188;-88
2020/12/13 10:34:09;;;;;;;27.92;18.95;;;5.50;97.20;;;;;;5089417;28;20563;-89
2020/12/13 10:36:39;;;;;;;35.10;22.30;;;5.50;97.00;;;;;;5089233;28;20227;-88
2020/12/13 10:39:06;;;;;;;47.85;28.27;;;5.40;97.20;;;;;;5088705;28;20750;-88
2020/12/13 10:41:35;;;;;;;68.65;35.85;;;5.40;97.30;;;;;;5088605;28;20188;-89
2020/12/13 10:44:03;;;;;;;40.75;26.77;;;5.40;97.40;;;;;;5089263;28;20211;-89
2020/12/13 10:46:29;;;;;;;58.20;35.30;;;5.30;97.50;;;;;;5086840;28;20192;-89
2020/12/13 10:48:55;;;;;;;39.50;24.97;;;5.30;97.60;;;;;;5087646;28;20176;-88
2020/12/13 10:51:23;;;;;;;32.20;22.07;;;5.30;97.60;;;;;;5103180;28;20183;-89
2020/12/13 10:53:49;;;;;;;35.03;24.10;;;5.30;97.80;;;;;;5109887;28;20934;-89
2020/12/13 10:56:18;;;;;;;33.93;21.80;;;5.40;97.60;;;;;;5108149;28;20246;-88
2020/12/13 10:58:44;;;;;;;33.80;21.42;;;5.40;97.70;;;;;;5107927;28;20683;-89
2020/12/13 11:01:13;;;;;;;33.38;23.27;;;5.30;97.30;;;;;;5107440;28;20517;-88
2020/12/13 11:03:39;;;;;;;36.70;24.25;;;5.40;97.60;;;;;;5107264;28;20191;-89
2020/12/13 11:06:09;;;;;;;35.53;22.37;;;5.40;97.50;;;;;;5109212;28;20696;-88
2020/12/13 11:08:38;;;;;;;31.30;22.40;;;5.40;97.30;;;;;;5107840;28;20514;-88
2020/12/13 11:11:07;;;;;;;40.88;23.33;;;5.40;97.10;;;;;;5107616;28;20627;-89
2020/12/13 11:13:34;;;;;;;43.60;25.00;;;5.40;97.60;;;;;;5109063;27;20231;-88
2020/12/13 11:16:08;;;;;;;34.38;24.95;;;5.50;97.70;;;;;;5107597;28;20203;-89
2020/12/13 11:18:36;;;;;;;42.53;24.77;;;5.50;97.00;;;;;;5106839;28;20568;-88
2020/12/13 11:21:03;;;;;;;38.50;24.85;;;5.50;97.60;;;;;;5109316;28;20172;-88
2020/12/13 11:23:29;;;;;;;40.15;25.63;;;5.50;97.10;;;;;;5107843;28;20180;-88
2020/12/13 11:25:58;;;;;;;40.50;29.53;;;5.50;97.50;;;;;;5107472;28;20176;-88
2020/12/13 11:28:27;;;;;;;36.97;24.60;;;5.50;97.40;;;;;;5108589;28;20218;-89
2020/12/13 11:30:55;;;;;;;42.72;28.27;;;5.40;97.40;;;;;;5107520;28;20385;-88
2020/12/13 11:33:24;;;;;;;39.97;27.30;;;5.40;97.70;;;;;;5109412;28;20599;-88
2020/12/13 11:35:50;;;;;;;46.70;30.40;;;5.40;97.60;;;;;;5106361;28;20278;-88
2020/12/13 11:38:18;;;;;;;40.63;28.63;;;5.40;97.90;;;;;;5109135;28;20264;-88
2020/12/13 11:40:44;;;;;;;41.92;28.58;;;5.40;97.40;;;;;;5106897;28;20171;-89
2020/12/13 11:43:13;;;;;;;39.00;26.20;;;5.50;98.00;;;;;;5108861;28;20587;-88
2020/12/13 11:45:41;;;;;;;41.03;25.88;;;5.50;97.20;;;;;;5107569;28;20972;-88
2020/12/13 11:48:13;;;;;;;38.83;26.30;;;5.50;97.20;;;;;;5107627;28;20582;-89
2020/12/13 11:50:43;;;;;;;41.20;27.45;;;5.50;96.80;;;;;;5106410;28;20256;-88
2020/12/13 11:53:09;;;;;;;38.05;26.60;;;5.40;97.20;;;;;;5106922;28;20184;-88
2020/12/13 11:55:46;;;;;;;42.57;27.80;;;5.40;97.40;;;;;;5106859;28;20221;-88
2020/12/13 11:58:16;;;;;;;42.20;27.73;;;5.50;97.30;;;;;;5107417;28;20183;-89
2020/12/13 12:00:41;;;;;;;39.40;26.30;;;5.50;97.60;;;;;;5106889;28;20196;-88
2020/12/13 12:03:07;;;;;;;37.93;24.30;;;5.50;96.70;;;;;;5106970;28;20180;-88
2020/12/13 12:05:36;;;;;;;46.70;32.67;;;5.50;96.60;;;;;;5107328;28;20179;-88
2020/12/13 12:08:01;;;;;;;38.33;25.95;;;5.30;97.20;;;;;;5105619;28;20191;-88
2020/12/13 12:10:27;;;;;;;46.40;30.40;;;5.40;97.20;;;;;;5106649;28;20183;-89
2020/12/13 12:12:52;;;;;;;44.77;29.13;;;5.40;97.30;;;;;;5107358;28;20648;-88
2020/12/13 12:15:18;;;;;;;42.60;28.93;;;5.50;97.40;;;;;;5106979;28;20200;-88
2020/12/13 12:17:44;;;;;;;43.97;29.87;;;5.60;97.30;;;;;;5106706;28;20783;-88
2020/12/13 12:20:18;;;;;;;41.00;26.30;;;5.60;96.80;;;;;;5106754;28;20182;-89
2020/12/13 12:22:50;;;;;;;39.00;25.90;;;5.60;97.30;;;;;;5106223;28;20184;-88
2020/12/13 12:25:15;;;;;;;40.83;27.80;;;5.60;97.10;;;;;;5106746;28;20199;-88
2020/12/13 12:27:44;;;;;;;45.70;27.43;;;5.60;96.80;;;;;;5107024;28;20602;-89
2020/12/13 12:30:09;;;;;;;48.55;30.60;;;5.50;97.10;;;;;;5106152;28;20183;-89
2020/12/13 12:32:44;;;;;;;47.10;29.50;;;5.60;97.20;;;;;;5105984;28;20179;-89
2020/12/13 12:35:12;;;;;;;40.03;27.52;;;5.60;96.90;;;;;;5106040;28;20202;-87
2020/12/13 12:37:38;;;;;;;34.78;24.55;;;5.50;95.90;;;;;;5107532;28;20236;-88
2020/12/13 12:40:04;;;;;;;34.90;26.30;;;5.40;96.10;;;;;;5105513;28;20187;-88
2020/12/13 12:42:33;;;;;;;36.22;26.02;;;5.30;96.50;;;;;;5105358;28;20631;-88
2020/12/13 12:44:59;;;;;;;33.47;23.80;;;5.30;96.60;;;;;;5106162;28;20191;-88
2020/12/13 12:47:24;;;;;;;35.30;24.77;;;5.30;96.40;;;;;;5106462;28;20184;-89
2020/12/13 12:49:52;;;;;;;34.80;24.77;;;5.30;96.70;;;;;;5107117;28;20583;-88
2020/12/13 12:52:30;;;;;;;36.95;26.05;;;5.30;96.80;;;;;;5085621;28;20275;-89
2020/12/13 12:54:58;;;;;;;35.90;25.50;;;5.30;96.10;;;;;;5085422;28;20172;-89
2020/12/13 12:57:24;;;;;;;38.20;26.60;;;5.20;96.40;;;;;;5084660;28;20180;-89